createdAt,value
2022-08-04T00:02:18.813Z,3.90
2022-08-04T00:05:30.740Z,3.72
2022-08-04T00:08:45.661Z,4.10
2022-08-04T00:11:49.562Z,3.85
2022-08-04T00:14:58.041Z,4.22
2022-08-04T00:18:05.193Z,3.60
2022-08-04T00:21:12.620Z,3.83
2022-08-04T00:24:19.829Z,3.33
2022-08-04T00:27:22.444Z,4.37
2022-08-04T00:30:25.259Z,3.72
2022-08-04T00:33:27.570Z,3.70
2022-08-04T00:36:30.831Z,4.65
2022-08-04T00:39:34.575Z,3.70
2022-08-04T00:42:59.207Z,3.55
2022-08-04T00:46:20.551Z,3.45
2022-08-04T00:49:38.150Z,3.22
2022-08-04T00:52:46.429Z,3.47
2022-08-04T00:56:03.642Z,3.50
2022-08-04T01:00:00.310Z,3.35
2022-08-04T01:03:33.372Z,3.80
2022-08-04T01:07:07.655Z,3.53
2022-08-04T01:10:23.163Z,3.28
2022-08-04T01:13:38.992Z,3.33
2022-08-04T01:16:52.173Z,3.97
2022-08-04T01:20:02.394Z,3.30
2022-08-04T01:23:29.820Z,3.10
2022-08-04T01:26:57.325Z,3.92
2022-08-04T01:30:01.818Z,3.83
2022-08-04T01:33:08.921Z,3.42
2022-08-04T01:36:12.829Z,3.85
2022-08-04T01:39:34.444Z,3.72
2022-08-04T01:42:37.377Z,3.50
2022-08-04T01:45:41.445Z,3.30
2022-08-04T01:48:53.191Z,4.10
2022-08-04T01:51:56.598Z,3.55
2022-08-04T01:55:01.193Z,4.00
2022-08-04T01:58:05.549Z,3.40
2022-08-04T02:01:10.257Z,3.50
2022-08-04T02:04:23.308Z,3.12
2022-08-04T02:07:32.147Z,4.10
2022-08-04T02:11:25.887Z,4.15
2022-08-04T02:14:50.187Z,3.97
2022-08-04T02:18:01.240Z,4.07
2022-08-04T02:21:03.742Z,3.53
2022-08-04T02:24:10.053Z,4.03
2022-08-04T02:27:14.952Z,3.78
2022-08-04T02:30:19.158Z,3.72
2022-08-04T02:33:26.941Z,3.97
2022-08-04T02:36:40.721Z,4.10
2022-08-04T02:42:53.764Z,3.03
2022-08-04T02:45:57.362Z,3.72
2022-08-04T02:49:05.927Z,3.40
2022-08-04T02:52:10.872Z,3.42
2022-08-04T02:55:14.073Z,2.87
2022-08-04T02:58:20.466Z,3.58
2022-08-04T03:01:23.844Z,3.65
2022-08-04T03:04:28.770Z,3.33
2022-08-04T03:08:08.100Z,3.30
2022-08-04T03:11:25.200Z,4.05
2022-08-04T03:15:01.590Z,3.28
2022-08-04T03:18:34.637Z,2.83
2022-08-04T03:22:03.404Z,3.33
2022-08-04T03:25:15.845Z,3.58
2022-08-04T03:28:33.506Z,4.03
2022-08-04T03:31:54.209Z,3.50
2022-08-04T03:35:28.420Z,3.65
2022-08-04T03:41:51.668Z,3.00
2022-08-04T03:45:41.248Z,3.35
2022-08-04T03:49:04.043Z,3.47
2022-08-04T03:52:43.848Z,3.20
2022-08-04T03:56:29.846Z,3.72
2022-08-04T03:59:40.758Z,3.85
2022-08-04T04:03:09.610Z,3.95
2022-08-04T04:06:34.413Z,3.03
2022-08-04T04:09:57.201Z,3.78
2022-08-04T04:13:29.936Z,3.80
2022-08-04T04:16:59.486Z,3.33
2022-08-04T04:20:24.109Z,3.87
2022-08-04T04:23:49.344Z,3.40
2022-08-04T04:27:16.674Z,3.42
2022-08-04T04:31:13.924Z,3.83
2022-08-04T04:34:16.206Z,3.85
2022-08-04T04:37:31.316Z,3.70
2022-08-04T04:40:59.900Z,3.60
2022-08-04T04:44:30.822Z,4.12
2022-08-04T04:48:10.678Z,3.37
2022-08-04T04:51:19.259Z,3.78
2022-08-04T04:54:39.379Z,3.62
2022-08-04T04:57:53.602Z,3.15
2022-08-04T05:01:42.225Z,3.40
2022-08-04T05:05:06.735Z,3.70
2022-08-04T05:08:44.355Z,3.20
2022-08-04T05:14:30.842Z,2.92
2022-08-04T05:15:49.548Z,3.25
2022-08-04T05:19:12.413Z,3.70
2022-08-04T05:22:26.878Z,3.75
2022-08-04T05:25:37.396Z,3.90
2022-08-04T05:28:43.087Z,3.33
2022-08-04T05:31:51.115Z,3.47
2022-08-04T05:35:00.213Z,3.30
2022-08-04T05:38:03.976Z,3.50
2022-08-04T05:41:09.209Z,3.67
2022-08-04T05:44:11.918Z,4.12
2022-08-04T05:47:15.470Z,3.90
2022-08-04T05:50:18.617Z,2.78
2022-08-04T05:53:21.741Z,3.50
2022-08-04T05:56:24.745Z,3.70
2022-08-04T05:59:29.226Z,3.20
2022-08-04T06:02:32.483Z,3.20
2022-08-04T06:05:35.458Z,2.35
2022-08-04T06:08:38.979Z,2.95
2022-08-04T06:12:03.238Z,2.87
2022-08-04T06:15:07.942Z,2.30
2022-08-04T06:18:32.894Z,3.10
2022-08-04T06:21:38.767Z,2.80
2022-08-04T06:24:45.121Z,2.72
2022-08-04T06:27:49.786Z,3.33
2022-08-04T06:30:55.078Z,2.95
2022-08-04T06:33:57.716Z,2.58
2022-08-04T06:37:00.457Z,2.60
2022-08-04T06:43:27.795Z,2.40
2022-08-04T06:46:34.229Z,2.80
2022-08-04T06:51:23.028Z,2.62
2022-08-04T06:53:01.045Z,2.30
2022-08-04T06:56:05.276Z,2.22
2022-08-04T06:59:08.423Z,2.10
2022-08-04T07:02:20.864Z,2.03
2022-08-04T07:05:23.698Z,2.28
2022-08-04T07:08:27.129Z,2.15
2022-08-04T07:11:39.478Z,2.20
2022-08-04T07:14:48.669Z,2.30
2022-08-04T07:17:52.612Z,2.28
2022-08-04T07:20:55.140Z,2.10
2022-08-04T07:27:00.209Z,2.72
2022-08-04T07:30:06.127Z,2.25
2022-08-04T07:33:09.060Z,2.53
2022-08-04T07:36:12.538Z,2.20
2022-08-04T07:39:27.743Z,2.40
2022-08-04T07:42:31.894Z,2.10
2022-08-04T07:45:34.838Z,2.72
2022-08-04T07:48:37.005Z,2.58
2022-08-04T07:51:40.471Z,2.60
2022-08-04T07:54:43.094Z,2.53
2022-08-04T08:00:48.094Z,2.25
2022-08-04T08:03:53.319Z,2.55
2022-08-04T08:06:57.702Z,2.30
2022-08-04T08:10:39.786Z,2.83
2022-08-04T08:13:43.962Z,2.90
2022-08-04T08:16:46.982Z,3.25
2022-08-04T08:19:49.109Z,2.78
2022-08-04T08:22:51.611Z,3.37
2022-08-04T08:25:53.792Z,3.07
2022-08-04T08:28:56.212Z,2.85
2022-08-04T08:32:05.536Z,3.37
2022-08-04T08:35:10.415Z,2.90
2022-08-04T08:38:15.716Z,2.43
2022-08-04T08:41:51.948Z,3.05
2022-08-04T08:45:17.690Z,2.87
2022-08-04T08:48:29.732Z,2.60
2022-08-04T08:51:53.510Z,2.47
2022-08-04T08:55:20.799Z,3.37
2022-08-04T08:58:41.415Z,2.72
2022-08-04T09:02:02.525Z,3.12
2022-08-04T09:05:14.608Z,4.97
2022-08-04T09:09:05.518Z,2.80
2022-08-04T09:12:39.329Z,2.95
2022-08-04T09:15:54.306Z,3.67
2022-08-04T09:19:04.479Z,2.92
2022-08-04T09:22:13.597Z,2.72
2022-08-04T09:25:28.567Z,2.90
2022-08-04T09:28:58.317Z,2.60
2022-08-04T09:32:28.174Z,2.65
2022-08-04T09:35:42.527Z,2.90
2022-08-04T09:38:58.430Z,2.60
2022-08-04T09:42:29.261Z,2.62
2022-08-04T09:46:03.592Z,2.60
2022-08-04T09:49:21.246Z,2.65
2022-08-04T09:52:47.581Z,2.65
2022-08-04T09:56:03.623Z,2.92
2022-08-04T09:59:22.354Z,2.72
2022-08-04T10:02:29.123Z,2.67
2022-08-04T10:06:00.098Z,2.70
2022-08-04T10:09:14.490Z,2.65
2022-08-04T10:12:41.681Z,2.90
2022-08-04T10:15:57.345Z,2.35
2022-08-04T10:19:26.518Z,2.60
2022-08-04T10:22:55.931Z,2.30
2022-08-04T10:26:11.406Z,2.62
2022-08-04T10:29:26.613Z,2.50
2022-08-04T10:32:43.829Z,2.85
2022-08-04T10:35:52.467Z,2.55
2022-08-04T10:39:07.380Z,2.50
2022-08-04T10:42:27.372Z,2.30
2022-08-04T10:45:57.905Z,2.30
2022-08-04T10:49:21.688Z,2.72
2022-08-04T10:52:35.910Z,3.05
2022-08-04T10:56:06.450Z,2.62
2022-08-04T10:59:16.084Z,3.60
2022-08-04T11:02:36.215Z,2.80
2022-08-04T11:05:48.612Z,2.78
2022-08-04T11:08:55.333Z,2.67
2022-08-04T11:12:16.382Z,3.15
2022-08-04T11:15:30.145Z,2.37
2022-08-04T11:19:10.149Z,3.42
2022-08-04T11:22:23.332Z,2.92
2022-08-04T11:25:32.610Z,3.20
2022-08-04T11:29:12.334Z,3.37
2022-08-04T11:32:23.022Z,4.32
2022-08-04T11:35:32.470Z,3.30
2022-08-04T11:38:52.013Z,3.25
2022-08-04T11:42:26.246Z,2.67
2022-08-04T11:45:39.715Z,3.50
2022-08-04T11:49:16.975Z,3.15
2022-08-04T11:52:21.870Z,3.12
2022-08-04T11:55:27.134Z,2.90
2022-08-04T11:58:30.731Z,3.35
2022-08-04T12:02:06.370Z,3.40
2022-08-04T12:05:10.063Z,3.25
2022-08-04T12:08:47.908Z,3.35
2022-08-04T12:12:13.702Z,3.50
2022-08-04T12:15:31.381Z,3.22
2022-08-04T12:18:40.387Z,3.00
2022-08-04T12:21:48.118Z,3.65
2022-08-04T12:25:03.911Z,3.25
2022-08-04T12:28:15.756Z,3.22
2022-08-04T12:31:26.510Z,3.58
2022-08-04T12:34:54.965Z,3.08
2022-08-04T12:38:04.596Z,3.65
2022-08-04T12:41:08.215Z,3.37
2022-08-04T12:44:36.914Z,3.20
2022-08-04T12:47:38.031Z,3.47
2022-08-04T12:50:42.161Z,3.17
2022-08-04T12:53:51.027Z,3.25
2022-08-04T12:56:58.247Z,3.00
2022-08-04T13:00:00.402Z,3.17
2022-08-04T13:03:10.211Z,3.30
2022-08-04T13:06:19.693Z,3.03
2022-08-04T13:09:30.271Z,4.43
2022-08-04T13:12:34.147Z,3.53
2022-08-04T13:15:47.216Z,3.55
2022-08-04T13:18:59.938Z,4.15
2022-08-04T13:22:08.389Z,4.03
2022-08-04T13:25:18.006Z,4.07
2022-08-04T13:28:34.984Z,3.45
2022-08-04T13:31:37.835Z,3.90
2022-08-04T13:34:42.746Z,3.67
2022-08-04T13:37:54.505Z,2.95
2022-08-04T13:40:59.912Z,3.65
2022-08-04T13:44:18.306Z,3.78
2022-08-04T13:47:30.402Z,2.97
2022-08-04T13:50:33.573Z,3.70
2022-08-04T13:53:37.984Z,3.42
2022-08-04T13:56:47.017Z,3.62
2022-08-04T13:59:54.671Z,3.67
2022-08-04T14:03:03.436Z,5.50
2022-08-04T14:06:25.878Z,3.85
2022-08-04T14:09:34.821Z,3.47
2022-08-04T14:12:47.284Z,4.10
2022-08-04T14:16:02.660Z,3.72
2022-08-04T14:19:06.746Z,3.62
2022-08-04T14:22:27.532Z,4.00
2022-08-04T14:25:35.764Z,3.65
2022-08-04T14:29:25.578Z,4.45
2022-08-04T14:32:13.879Z,3.85
2022-08-04T14:35:50.522Z,3.80
2022-08-04T14:42:02.904Z,3.00
2022-08-04T14:45:05.858Z,3.42
2022-08-04T14:51:15.171Z,3.53
2022-08-04T14:54:25.484Z,4.15
2022-08-04T14:57:27.931Z,3.87
2022-08-04T15:00:32.800Z,3.40
2022-08-04T15:03:39.126Z,3.37
2022-08-04T15:06:53.430Z,3.53
2022-08-04T15:09:56.340Z,4.43
2022-08-04T15:12:59.110Z,3.87
2022-08-04T15:16:07.898Z,3.95
2022-08-04T15:19:10.643Z,3.28
2022-08-04T15:22:17.275Z,3.67
2022-08-04T15:25:20.263Z,3.40
2022-08-04T15:32:06.308Z,3.15
2022-08-04T15:34:52.462Z,3.30
2022-08-04T15:37:57.494Z,3.58
2022-08-04T15:41:08.034Z,3.25
2022-08-04T15:44:35.173Z,3.70
2022-08-04T15:47:37.725Z,3.65
2022-08-04T15:51:02.851Z,4.37
2022-08-04T15:54:08.726Z,3.70
2022-08-04T15:57:58.184Z,3.10
2022-08-04T16:01:00.523Z,3.67
2022-08-04T16:04:21.647Z,3.58
2022-08-04T16:07:57.327Z,3.85
2022-08-04T16:10:59.874Z,3.62
2022-08-04T16:14:01.969Z,4.00
2022-08-04T16:17:15.335Z,3.55
2022-08-04T16:20:18.477Z,3.85
2022-08-04T16:24:02.141Z,4.30
2022-08-04T16:27:12.558Z,4.25
2022-08-04T16:30:15.273Z,3.78
2022-08-04T16:33:17.589Z,3.50
2022-08-04T16:36:58.374Z,3.62
2022-08-04T16:40:34.700Z,3.90
2022-08-04T16:43:38.162Z,3.45
2022-08-04T16:47:01.448Z,3.55
2022-08-04T16:50:05.446Z,4.12
2022-08-04T16:53:14.474Z,4.00
2022-08-04T16:56:35.242Z,3.47
2022-08-04T16:59:38.209Z,4.55
2022-08-04T17:02:41.140Z,3.35
2022-08-04T17:05:43.555Z,3.67
2022-08-04T17:08:48.818Z,3.90
2022-08-04T17:11:53.553Z,3.90
2022-08-04T17:14:57.427Z,3.83
2022-08-04T17:18:24.344Z,4.53
2022-08-04T17:21:31.531Z,3.92
2022-08-04T17:24:36.771Z,3.83
2022-08-04T17:28:09.587Z,3.72
2022-08-04T17:31:06.552Z,4.40
2022-08-04T17:34:19.489Z,3.50
2022-08-04T17:37:38.947Z,3.97
2022-08-04T17:41:19.448Z,3.87
2022-08-04T17:44:38.959Z,3.70
2022-08-04T17:47:52.502Z,2.93
2022-08-04T17:50:54.628Z,4.30
2022-08-04T17:54:03.099Z,3.83
2022-08-04T17:57:22.676Z,3.87
2022-08-04T18:00:25.128Z,3.50
2022-08-04T18:03:35.851Z,3.37
2022-08-04T18:06:38.353Z,3.78
2022-08-04T18:09:57.842Z,3.30
2022-08-04T18:13:15.736Z,3.35
2022-08-04T18:16:22.222Z,3.95
2022-08-04T18:19:25.466Z,3.50
2022-08-04T18:22:28.780Z,3.65
2022-08-04T18:25:51.180Z,3.60
2022-08-04T18:28:53.590Z,3.33
2022-08-04T18:31:55.731Z,3.72
2022-08-04T18:35:05.423Z,3.35
2022-08-04T18:38:11.422Z,3.92
2022-08-04T18:41:27.715Z,4.20
2022-08-04T18:44:31.587Z,4.37
2022-08-04T18:51:08.684Z,3.83
2022-08-04T18:54:13.943Z,3.80
2022-08-04T18:57:32.717Z,4.30
2022-08-04T19:00:46.170Z,3.72
2022-08-04T19:03:54.488Z,4.30
2022-08-04T19:10:26.731Z,4.07
2022-08-04T19:13:34.804Z,4.60
2022-08-04T19:16:37.969Z,4.55
2022-08-04T19:19:47.747Z,4.03
2022-08-04T19:24:29.531Z,4.65
2022-08-04T19:26:27.942Z,4.60
2022-08-04T19:32:53.047Z,5.45
2022-08-04T19:35:55.194Z,5.37
2022-08-04T19:42:04.320Z,5.28
2022-08-04T19:45:15.952Z,6.12
2022-08-04T19:48:20.165Z,4.90
2022-08-04T19:51:22.776Z,5.55
2022-08-04T19:54:30.079Z,5.57
2022-08-04T19:57:35.339Z,5.68
2022-08-04T20:00:40.563Z,5.85
2022-08-04T20:04:10.407Z,5.47
2022-08-04T20:07:14.203Z,6.22
2022-08-04T20:10:17.309Z,5.43
2022-08-04T20:13:37.213Z,5.05
2022-08-04T20:16:40.269Z,4.35
2022-08-04T20:19:42.576Z,4.72
2022-08-04T20:22:54.034Z,4.97
2022-08-04T20:25:56.280Z,4.50
2022-08-04T20:28:58.735Z,5.47
2022-08-04T20:32:05.362Z,4.03
2022-08-04T20:35:08.768Z,4.65
2022-08-04T20:38:33.080Z,5.37
2022-08-04T20:41:37.181Z,4.28
2022-08-04T20:44:42.377Z,4.10
2022-08-04T20:47:53.255Z,4.78
2022-08-04T20:50:56.870Z,4.60
2022-08-04T20:53:59.996Z,4.60
2022-08-04T21:00:08.167Z,4.15
2022-08-04T21:03:10.280Z,4.22
2022-08-04T21:06:12.692Z,4.97
2022-08-04T21:09:15.343Z,4.00
2022-08-04T21:12:27.560Z,4.25
2022-08-04T21:15:50.769Z,4.45
2022-08-04T21:18:53.240Z,4.07
2022-08-04T21:21:55.381Z,4.05
2022-08-04T21:24:58.072Z,4.20
2022-08-04T21:28:04.655Z,3.45
2022-08-04T21:31:11.261Z,3.72
2022-08-04T21:34:37.888Z,3.85
2022-08-04T21:37:58.027Z,4.03
2022-08-04T21:41:03.387Z,3.90
2022-08-04T21:44:08.732Z,4.43
2022-08-04T21:47:14.087Z,4.28
2022-08-04T21:50:30.585Z,3.40
2022-08-04T21:53:33.033Z,4.32
2022-08-04T21:56:35.949Z,3.50
2022-08-04T21:59:45.998Z,3.37
2022-08-04T22:02:53.592Z,3.62
2022-08-04T22:05:56.723Z,4.32
2022-08-04T22:08:58.975Z,3.47
2022-08-04T22:12:03.363Z,3.90
2022-08-04T22:15:22.889Z,4.20
2022-08-04T22:18:30.576Z,3.47
2022-08-04T22:21:32.814Z,2.95
2022-08-04T22:24:41.827Z,4.07
2022-08-04T22:28:03.737Z,3.70
2022-08-04T22:31:23.243Z,3.40
2022-08-04T22:34:27.823Z,3.25
2022-08-04T22:37:35.921Z,3.70
2022-08-04T22:40:38.711Z,3.72
2022-08-04T22:43:41.751Z,3.90
2022-08-04T22:46:43.953Z,3.58
2022-08-04T22:49:56.464Z,3.95
2022-08-04T22:53:10.258Z,3.97
2022-08-04T22:56:37.333Z,4.30
2022-08-04T22:59:43.238Z,3.72
2022-08-04T23:02:45.929Z,3.92
2022-08-04T23:05:50.641Z,3.67
2022-08-04T23:08:53.544Z,4.43
2022-08-04T23:12:15.259Z,3.25
2022-08-04T23:15:18.322Z,4.03
2022-08-04T23:18:20.492Z,3.10
2022-08-04T23:21:24.272Z,4.10
2022-08-04T23:24:30.050Z,4.00
2022-08-04T23:27:40.269Z,3.55
2022-08-04T23:30:47.185Z,3.67
2022-08-04T23:33:51.823Z,3.53
2022-08-04T23:36:55.333Z,4.03
2022-08-04T23:40:15.632Z,3.47
2022-08-04T23:43:20.103Z,3.70
2022-08-04T23:46:25.617Z,3.45
2022-08-04T23:49:42.255Z,3.75
2022-08-04T23:52:49.546Z,4.05
2022-08-04T23:55:51.914Z,3.45
2022-08-04T23:58:54.506Z,3.78
